createdAt,value
2023-05-21T00:01:35.112Z,99625.31
2023-05-21T00:04:03.234Z,99632.56
2023-05-21T00:06:30.945Z,99632.78
2023-05-21T00:08:58.891Z,99627.00
2023-05-21T00:11:26.818Z,99622.59
2023-05-21T00:13:54.405Z,99624.19
2023-05-21T00:16:22.592Z,99631.69
2023-05-21T00:18:50.596Z,99632.19
2023-05-21T00:21:18.384Z,99629.00
2023-05-21T00:23:46.059Z,99632.75
2023-05-21T00:26:14.120Z,99628.19
2023-05-21T00:28:42.842Z,99628.03
2023-05-21T00:31:10.444Z,99639.38
2023-05-21T00:33:38.432Z,99619.44
2023-05-21T00:36:06.323Z,99623.09
2023-05-21T00:38:33.988Z,99622.97
2023-05-21T00:41:02.453Z,99636.34
2023-05-21T00:43:30.149Z,99622.91
2023-05-21T00:45:57.871Z,99613.41
2023-05-21T00:48:26.019Z,99621.56
2023-05-21T00:50:53.719Z,99620.47
2023-05-21T00:53:21.428Z,99618.06
2023-05-21T00:55:50.632Z,99622.13
2023-05-21T00:58:18.297Z,99618.31
2023-05-21T01:00:46.790Z,99619.87
2023-05-21T01:03:14.879Z,99613.53
2023-05-21T01:05:42.693Z,99614.25
2023-05-21T01:08:10.460Z,99621.38
2023-05-21T01:10:38.444Z,99622.38
2023-05-21T01:13:06.116Z,99616.25
2023-05-21T01:15:33.750Z,99618.88
2023-05-21T01:18:01.938Z,99619.09
2023-05-21T01:20:29.770Z,99620.94
2023-05-21T01:22:57.615Z,99617.25
2023-05-21T01:25:25.688Z,99617.84
2023-05-21T01:27:53.385Z,99621.06
2023-05-21T01:30:21.872Z,99615.78
2023-05-21T01:33:02.568Z,99610.91
2023-05-21T01:35:34.591Z,99607.13
2023-05-21T01:38:41.533Z,99608.00
2023-05-21T01:41:13.164Z,99608.62
2023-05-21T01:43:44.457Z,99604.94
2023-05-21T01:46:16.538Z,99608.94
2023-05-21T01:48:44.623Z,99601.25
2023-05-21T01:51:12.357Z,99609.38
2023-05-21T01:53:40.839Z,99613.25
2023-05-21T01:56:08.889Z,99606.69
2023-05-21T01:58:36.970Z,99599.09
2023-05-21T02:01:04.717Z,99599.13
2023-05-21T02:03:32.888Z,99603.41
2023-05-21T02:06:00.740Z,99603.53
2023-05-21T02:08:28.428Z,99602.06
2023-05-21T02:10:56.338Z,99609.59
2023-05-21T02:13:26.233Z,99608.78
2023-05-21T02:15:55.559Z,99602.63
2023-05-21T02:18:24.255Z,99594.31
2023-05-21T02:20:59.818Z,99602.94
2023-05-21T02:23:28.381Z,99603.50
2023-05-21T02:25:56.301Z,99610.31
2023-05-21T02:28:24.419Z,99604.72
2023-05-21T02:30:52.236Z,99611.31
2023-05-21T02:33:21.171Z,99605.13
2023-05-21T02:35:48.852Z,99618.38
2023-05-21T02:38:16.425Z,99612.50
2023-05-21T02:40:44.341Z,99611.31
2023-05-21T02:43:12.938Z,99613.22
2023-05-21T02:45:41.988Z,99613.37
2023-05-21T02:48:10.171Z,99603.03
2023-05-21T02:50:38.515Z,99604.16
2023-05-21T02:53:06.460Z,99601.41
2023-05-21T02:55:35.457Z,99603.78
2023-05-21T02:58:03.467Z,99604.16
2023-05-21T03:00:31.292Z,99599.84
2023-05-21T03:03:00.828Z,99593.31
2023-05-21T03:05:28.478Z,99590.47
2023-05-21T03:07:56.278Z,99593.94
2023-05-21T03:10:24.231Z,99596.97
2023-05-21T03:12:51.882Z,99590.56
2023-05-21T03:15:19.554Z,99591.06
2023-05-21T03:17:47.561Z,99595.75
2023-05-21T03:20:15.299Z,99588.38
2023-05-21T03:22:44.214Z,99592.06
2023-05-21T03:25:12.885Z,99596.22
2023-05-21T03:27:40.522Z,99595.78
2023-05-21T03:30:09.403Z,99590.81
2023-05-21T03:32:39.113Z,99587.53
2023-05-21T03:35:07.444Z,99591.59
2023-05-21T03:37:35.455Z,99594.84
2023-05-21T03:40:03.647Z,99600.22
2023-05-21T03:42:31.366Z,99602.38
2023-05-21T03:44:59.236Z,99600.09
2023-05-21T03:47:29.219Z,99610.31
2023-05-21T03:49:57.559Z,99613.25
2023-05-21T03:52:25.232Z,99626.22
2023-05-21T03:54:53.184Z,99614.00
2023-05-21T03:57:21.098Z,99616.84
2023-05-21T03:59:49.699Z,99617.16
2023-05-21T04:02:17.963Z,99620.47
2023-05-21T04:04:46.158Z,99618.94
2023-05-21T04:07:13.942Z,99627.47
2023-05-21T04:09:41.987Z,99625.88
2023-05-21T04:12:09.978Z,99634.87
2023-05-21T04:14:37.816Z,99629.97
2023-05-21T04:17:05.556Z,99640.75
2023-05-21T04:19:33.920Z,99638.31
2023-05-21T04:22:01.992Z,99634.59
2023-05-21T04:24:30.021Z,99635.66
2023-05-21T04:26:58.779Z,99636.97
2023-05-21T04:29:29.491Z,99628.72
2023-05-21T04:31:57.810Z,99624.59
2023-05-21T04:34:25.853Z,99619.84
2023-05-21T04:36:53.589Z,99619.53
2023-05-21T04:39:21.346Z,99616.81
2023-05-21T04:41:49.452Z,99616.81
2023-05-21T04:44:17.329Z,99615.09
2023-05-21T04:46:45.559Z,99616.00
2023-05-21T04:49:13.591Z,99618.25
2023-05-21T04:51:43.159Z,99616.16
2023-05-21T04:54:10.786Z,99605.75
2023-05-21T04:56:38.825Z,99615.25
2023-05-21T04:59:06.634Z,99610.72
2023-05-21T05:01:34.692Z,99608.72
2023-05-21T05:04:02.629Z,99616.19
2023-05-21T05:06:32.876Z,99622.97
2023-05-21T05:09:01.390Z,99619.09
2023-05-21T05:11:29.540Z,99619.66
2023-05-21T05:13:59.867Z,99623.75
2023-05-21T05:16:27.687Z,99626.00
2023-05-21T05:18:57.013Z,99629.72
2023-05-21T05:21:24.869Z,99623.75
2023-05-21T05:23:52.483Z,99626.56
2023-05-21T05:26:21.684Z,99623.41
2023-05-21T05:28:50.326Z,99620.00
2023-05-21T05:31:18.999Z,99620.00
2023-05-21T05:33:47.850Z,99619.37
2023-05-21T05:36:15.895Z,99618.16
2023-05-21T05:38:43.605Z,99618.06
2023-05-21T05:41:11.998Z,99623.22
2023-05-21T05:43:39.830Z,99617.34
2023-05-21T05:46:07.517Z,99610.31
2023-05-21T05:48:35.681Z,99616.84
2023-05-21T05:51:03.643Z,99616.50
2023-05-21T05:53:31.587Z,99613.75
2023-05-21T05:55:59.910Z,99608.22
2023-05-21T05:58:27.955Z,99612.50
2023-05-21T06:00:56.247Z,99609.38
2023-05-21T06:03:25.149Z,99608.97
2023-05-21T06:05:53.456Z,99602.13
2023-05-21T06:08:21.390Z,99597.66
2023-05-21T06:10:49.468Z,99595.41
2023-05-21T06:13:17.101Z,99593.31
2023-05-21T06:15:44.896Z,99599.53
2023-05-21T06:18:13.034Z,99588.06
2023-05-21T06:20:40.847Z,99587.63
2023-05-21T06:23:09.002Z,99596.16
2023-05-21T06:25:37.730Z,99586.47
2023-05-21T06:28:06.190Z,99585.69
2023-05-21T06:30:34.199Z,99588.59
2023-05-21T06:33:02.328Z,99580.66
2023-05-21T06:35:30.180Z,99582.78
2023-05-21T06:37:57.825Z,99584.84
2023-05-21T06:40:25.850Z,99578.69
2023-05-21T06:42:54.108Z,99576.47
2023-05-21T06:45:23.049Z,99577.69
2023-05-21T06:47:51.575Z,99576.47
2023-05-21T06:50:19.523Z,99584.88
2023-05-21T06:52:47.247Z,99592.38
2023-05-21T06:55:15.293Z,99579.78
2023-05-21T06:57:47.797Z,99591.41
2023-05-21T07:00:15.941Z,99579.47
2023-05-21T07:02:43.785Z,99576.41
2023-05-21T07:05:11.629Z,99576.03
2023-05-21T07:07:39.615Z,99583.00
2023-05-21T07:10:07.979Z,99576.75
2023-05-21T07:12:35.840Z,99572.28
2023-05-21T07:15:04.125Z,99585.00
2023-05-21T07:17:31.920Z,99587.81
2023-05-21T07:19:59.604Z,99581.19
2023-05-21T07:22:28.504Z,99585.75
2023-05-21T07:24:56.428Z,99581.97
2023-05-21T07:27:26.118Z,99580.09
2023-05-21T07:29:54.962Z,99578.75
2023-05-21T07:32:22.604Z,99580.78
2023-05-21T07:34:51.564Z,99581.41
2023-05-21T07:37:21.271Z,99574.94
2023-05-21T07:39:49.119Z,99574.53
2023-05-21T07:42:17.805Z,99575.09
2023-05-21T07:44:46.016Z,99581.13
2023-05-21T07:47:13.714Z,99573.38
2023-05-21T07:49:41.457Z,99579.06
2023-05-21T07:52:09.635Z,99577.62
2023-05-21T07:54:37.355Z,99581.28
2023-05-21T07:57:05.856Z,99580.53
2023-05-21T07:59:40.009Z,99571.22
2023-05-21T08:02:07.971Z,99568.28
2023-05-21T08:04:37.423Z,99576.53
2023-05-21T08:07:06.324Z,99573.91
2023-05-21T08:09:33.965Z,99581.81
2023-05-21T08:12:02.226Z,99575.63
2023-05-21T08:14:30.933Z,99571.34
2023-05-21T08:16:58.866Z,99568.38
2023-05-21T08:19:26.928Z,99571.47
2023-05-21T08:21:54.920Z,99572.75
2023-05-21T08:24:24.003Z,99577.56
2023-05-21T08:26:52.690Z,99574.59
2023-05-21T08:29:20.625Z,99573.44
2023-05-21T08:31:48.506Z,99573.16
2023-05-21T08:34:16.535Z,99573.63
2023-05-21T08:36:44.610Z,99580.41
2023-05-21T08:39:13.271Z,99571.44
2023-05-21T08:41:41.538Z,99581.56
2023-05-21T08:44:12.323Z,99584.69
2023-05-21T08:46:40.921Z,99579.28
2023-05-21T08:49:12.357Z,99579.69
2023-05-21T08:51:40.031Z,99573.87
2023-05-21T08:54:07.888Z,99575.53
2023-05-21T08:56:35.857Z,99579.84
2023-05-21T08:59:03.731Z,99576.31
2023-05-21T09:01:32.894Z,99575.19
2023-05-21T09:04:12.216Z,99576.34
2023-05-21T09:06:47.966Z,99575.56
2023-05-21T09:09:29.777Z,99573.22
2023-05-21T09:11:57.438Z,99568.91
2023-05-21T09:14:26.673Z,99571.97
2023-05-21T09:16:55.454Z,99563.81
2023-05-21T09:19:23.293Z,99566.53
2023-05-21T09:21:52.088Z,99562.62
2023-05-21T09:24:21.814Z,99566.94
2023-05-21T09:26:49.890Z,99560.22
2023-05-21T09:29:18.328Z,99567.25
2023-05-21T09:31:46.401Z,99567.25
2023-05-21T09:34:14.288Z,99566.44
2023-05-21T09:36:42.690Z,99563.66
2023-05-21T09:39:10.447Z,99557.44
2023-05-21T09:41:38.092Z,99565.53
2023-05-21T09:44:06.110Z,99566.66
2023-05-21T09:46:39.210Z,99566.59
2023-05-21T09:49:07.580Z,99558.22
2023-05-21T09:51:41.594Z,99561.41
2023-05-21T09:54:10.717Z,99554.31
2023-05-21T09:56:39.753Z,99553.31
2023-05-21T09:59:07.403Z,99553.31
2023-05-21T10:01:35.478Z,99549.31
2023-05-21T10:04:06.962Z,99546.94
2023-05-21T10:06:38.694Z,99541.69
2023-05-21T10:09:09.525Z,99543.91
2023-05-21T10:11:37.469Z,99550.56
2023-05-21T10:14:16.642Z,99534.84
2023-05-21T10:16:45.066Z,99539.25
2023-05-21T10:19:13.928Z,99543.28
2023-05-21T10:21:42.013Z,99534.47
2023-05-21T10:24:10.756Z,99544.69
2023-05-21T10:26:38.571Z,99539.53
2023-05-21T10:29:07.904Z,99533.25
2023-05-21T10:31:36.094Z,99535.28
2023-05-21T10:34:04.013Z,99539.00
2023-05-21T10:36:32.409Z,99530.34
2023-05-21T10:39:01.945Z,99535.03
2023-05-21T10:41:35.936Z,99535.63
2023-05-21T10:44:21.788Z,99535.50
2023-05-21T10:47:27.251Z,99531.03
2023-05-21T10:50:18.214Z,99531.16
2023-05-21T10:53:10.664Z,99536.13
2023-05-21T10:55:50.893Z,99532.81
2023-05-21T10:58:29.869Z,99530.38
2023-05-21T11:00:59.490Z,99531.22
2023-05-21T11:03:27.690Z,99524.31
2023-05-21T11:05:56.113Z,99526.59
2023-05-21T11:08:29.185Z,99525.00
2023-05-21T11:10:57.826Z,99523.09
2023-05-21T11:13:26.850Z,99521.66
2023-05-21T11:15:57.424Z,99525.09
2023-05-21T11:18:37.680Z,99525.03
2023-05-21T11:21:06.353Z,99526.59
2023-05-21T11:23:54.086Z,99512.50
2023-05-21T11:26:23.256Z,99516.13
2023-05-21T11:29:05.772Z,99519.00
2023-05-21T11:31:34.495Z,99518.28
2023-05-21T11:34:13.953Z,99509.38
2023-05-21T11:36:45.785Z,99514.50
2023-05-21T11:39:18.111Z,99506.19
2023-05-21T11:42:01.576Z,99512.41
2023-05-21T11:44:44.822Z,99503.41
2023-05-21T11:47:13.473Z,99506.37
2023-05-21T11:49:41.433Z,99504.94
2023-05-21T11:52:09.986Z,99504.03
2023-05-21T11:54:47.589Z,99499.00
2023-05-21T11:57:15.557Z,99501.28
2023-05-21T11:59:43.308Z,99495.66
2023-05-21T12:02:14.934Z,99490.75
2023-05-21T12:04:43.412Z,99487.03
2023-05-21T12:07:11.561Z,99489.09
2023-05-21T12:09:40.245Z,99483.34
2023-05-21T12:12:09.036Z,99477.22
2023-05-21T12:14:37.297Z,99478.50
2023-05-21T12:17:05.971Z,99486.56
2023-05-21T12:19:37.286Z,99479.66
2023-05-21T12:22:07.123Z,99468.53
2023-05-21T12:24:35.954Z,99470.00
2023-05-21T12:27:05.576Z,99473.03
2023-05-21T12:29:33.783Z,99471.34
2023-05-21T12:32:03.043Z,99476.41
2023-05-21T12:34:40.492Z,99475.91
2023-05-21T12:37:08.416Z,99468.00
2023-05-21T12:39:40.325Z,99471.03
2023-05-21T12:42:08.954Z,99469.00
2023-05-21T12:44:38.979Z,99463.81
2023-05-21T12:47:06.578Z,99469.75
2023-05-21T12:49:35.968Z,99460.72
2023-05-21T12:52:13.404Z,99460.34
2023-05-21T12:54:43.760Z,99458.94
2023-05-21T12:57:17.673Z,99450.72
2023-05-21T12:59:45.461Z,99445.25
2023-05-21T13:02:30.019Z,99437.78
2023-05-21T13:04:59.828Z,99443.06
2023-05-21T13:07:29.215Z,99433.09
2023-05-21T13:09:57.770Z,99440.66
2023-05-21T13:12:28.206Z,99435.00
2023-05-21T13:14:57.969Z,99432.84
2023-05-21T13:17:26.810Z,99423.53
2023-05-21T13:20:16.662Z,99427.69
2023-05-21T13:22:45.908Z,99418.97
2023-05-21T13:25:21.420Z,99417.59
2023-05-21T13:27:50.455Z,99409.47
2023-05-21T13:30:18.641Z,99409.66
2023-05-21T13:32:47.062Z,99413.78
2023-05-21T13:35:15.240Z,99417.09
2023-05-21T13:37:42.902Z,99405.28
2023-05-21T13:40:11.906Z,99404.19
2023-05-21T13:42:40.324Z,99410.31
2023-05-21T13:45:09.251Z,99404.63
2023-05-21T13:47:39.270Z,99398.91
2023-05-21T13:50:09.242Z,99399.94
2023-05-21T13:52:37.415Z,99399.69
2023-05-21T13:55:05.546Z,99406.47
2023-05-21T13:57:33.625Z,99398.06
2023-05-21T14:00:01.713Z,99394.56
2023-05-21T14:02:29.935Z,99401.06
2023-05-21T14:04:58.165Z,99395.09
2023-05-21T14:07:25.847Z,99399.59
2023-05-21T14:09:53.525Z,99383.47
2023-05-21T14:12:21.507Z,99390.53
2023-05-21T14:14:49.149Z,99396.84
2023-05-21T14:17:16.808Z,99389.19
2023-05-21T14:19:44.729Z,99391.75
2023-05-21T14:22:12.321Z,99393.41
2023-05-21T14:24:39.974Z,99387.03
2023-05-21T14:27:07.839Z,99381.78
2023-05-21T14:29:35.491Z,99385.94
2023-05-21T14:32:03.046Z,99382.66
2023-05-21T14:34:30.990Z,99382.22
2023-05-21T14:36:59.309Z,99385.09
2023-05-21T14:39:27.233Z,99381.97
2023-05-21T14:41:55.144Z,99372.78
2023-05-21T14:44:22.793Z,99373.22
2023-05-21T14:46:50.539Z,99380.56
2023-05-21T14:49:18.777Z,99380.12
2023-05-21T14:51:47.021Z,99367.50
2023-05-21T14:54:14.772Z,99370.19
2023-05-21T14:56:42.604Z,99367.19
2023-05-21T14:59:10.276Z,99368.22
2023-05-21T15:01:38.142Z,99372.94
2023-05-21T15:04:06.243Z,99362.97
2023-05-21T15:06:33.996Z,99368.16
2023-05-21T15:09:02.489Z,99360.69
2023-05-21T15:11:30.515Z,99361.84
2023-05-21T15:13:58.231Z,99363.84
2023-05-21T15:16:26.014Z,99358.75
2023-05-21T15:18:54.055Z,99352.13
2023-05-21T15:21:21.788Z,99357.97
2023-05-21T15:23:49.393Z,99362.06
2023-05-21T15:26:17.383Z,99360.78
2023-05-21T15:28:45.102Z,99359.44
2023-05-21T15:31:14.792Z,99351.16
2023-05-21T15:33:45.366Z,99350.34
2023-05-21T15:36:12.987Z,99352.50
2023-05-21T15:38:40.697Z,99355.66
2023-05-21T15:41:08.664Z,99358.84
2023-05-21T15:43:36.297Z,99352.31
2023-05-21T15:46:04.530Z,99353.81
2023-05-21T15:48:32.457Z,99355.09
2023-05-21T15:51:00.379Z,99353.50
2023-05-21T15:53:28.089Z,99350.16
2023-05-21T15:55:56.318Z,99361.16
2023-05-21T15:58:24.037Z,99349.69
2023-05-21T16:00:51.777Z,99351.81
2023-05-21T16:03:19.768Z,99354.81
2023-05-21T16:05:47.585Z,99360.84
2023-05-21T16:08:15.194Z,99360.37
2023-05-21T16:10:43.413Z,99359.47
2023-05-21T16:13:11.260Z,99359.91
2023-05-21T16:15:39.539Z,99355.28
2023-05-21T16:18:07.717Z,99364.75
2023-05-21T16:20:35.408Z,99359.38
2023-05-21T16:23:03.072Z,99364.09
2023-05-21T16:25:31.098Z,99357.03
2023-05-21T16:27:59.157Z,99357.59
2023-05-21T16:30:26.787Z,99362.41
2023-05-21T16:32:54.932Z,99357.00
2023-05-21T16:35:22.724Z,99356.25
2023-05-21T16:37:50.620Z,99365.53
2023-05-21T16:40:18.637Z,99357.97
2023-05-21T16:42:46.378Z,99369.94
2023-05-21T16:45:14.211Z,99364.25
2023-05-21T16:47:42.218Z,99369.75
2023-05-21T16:50:10.105Z,99365.59
2023-05-21T16:52:37.805Z,99362.47
2023-05-21T16:55:06.136Z,99365.06
2023-05-21T16:57:36.548Z,99369.56
2023-05-21T17:00:05.467Z,99366.09
2023-05-21T17:02:33.832Z,99373.09
2023-05-21T17:05:01.760Z,99366.75
2023-05-21T17:07:29.347Z,99375.25
2023-05-21T17:09:57.353Z,99376.87
2023-05-21T17:12:24.931Z,99377.28
2023-05-21T17:14:52.718Z,99378.72
2023-05-21T17:17:20.794Z,99376.06
2023-05-21T17:19:48.459Z,99379.28
2023-05-21T17:22:16.181Z,99370.97
2023-05-21T17:24:44.118Z,99368.63
2023-05-21T17:27:12.053Z,99381.72
2023-05-21T17:29:39.970Z,99376.09
2023-05-21T17:32:08.121Z,99377.81
2023-05-21T17:34:35.868Z,99371.94
2023-05-21T17:37:03.577Z,99373.50
2023-05-21T17:39:31.585Z,99378.56
2023-05-21T17:41:59.365Z,99373.88
2023-05-21T17:44:27.016Z,99375.91
2023-05-21T17:46:55.139Z,99371.59
2023-05-21T17:49:22.919Z,99372.03
2023-05-21T17:51:51.039Z,99384.94
2023-05-21T17:54:19.829Z,99370.44
2023-05-21T17:56:47.424Z,99373.16
2023-05-21T17:59:15.315Z,99367.31
2023-05-21T18:01:43.354Z,99378.56
2023-05-21T18:04:11.281Z,99374.16
2023-05-21T18:06:39.830Z,99374.44
2023-05-21T18:09:07.614Z,99372.12
2023-05-21T18:11:35.645Z,99381.34
2023-05-21T18:14:03.497Z,99380.84
2023-05-21T18:16:31.210Z,99371.41
2023-05-21T18:18:59.545Z,99375.25
2023-05-21T18:21:27.310Z,99370.88
2023-05-21T18:23:54.966Z,99375.81
2023-05-21T18:26:22.910Z,99365.16
2023-05-21T18:28:50.566Z,99368.00
2023-05-21T18:31:18.220Z,99365.72
2023-05-21T18:33:46.246Z,99367.56
2023-05-21T18:36:14.029Z,99367.13
2023-05-21T18:38:41.744Z,99371.00
2023-05-21T18:41:09.724Z,99368.47
2023-05-21T18:43:37.482Z,99373.12
2023-05-21T18:46:05.182Z,99374.75
2023-05-21T18:48:33.252Z,99374.19
2023-05-21T18:51:01.069Z,99378.81
2023-05-21T18:53:28.716Z,99378.50
2023-05-21T18:55:57.031Z,99374.59
2023-05-21T18:58:24.726Z,99375.75
2023-05-21T19:00:52.426Z,99379.12
2023-05-21T19:03:20.685Z,99376.34
2023-05-21T19:05:49.077Z,99377.78
2023-05-21T19:08:16.821Z,99383.50
2023-05-21T19:10:45.769Z,99387.97
2023-05-21T19:13:13.509Z,99387.66
2023-05-21T19:15:41.241Z,99390.13
2023-05-21T19:18:09.515Z,99390.53
2023-05-21T19:20:37.502Z,99391.91
2023-05-21T19:23:05.434Z,99392.34
2023-05-21T19:25:33.473Z,99393.00
2023-05-21T19:28:01.386Z,99392.84
2023-05-21T19:30:29.085Z,99394.47
2023-05-21T19:32:57.052Z,99399.03
2023-05-21T19:35:24.724Z,99397.31
2023-05-21T19:37:52.326Z,99398.72
2023-05-21T19:40:20.413Z,99406.03
2023-05-21T19:42:48.156Z,99400.38
2023-05-21T19:45:15.939Z,99401.59
2023-05-21T19:47:44.015Z,99394.53
2023-05-21T19:50:11.786Z,99397.56
2023-05-21T19:52:39.518Z,99399.22
2023-05-21T19:55:07.716Z,99395.91
2023-05-21T19:57:35.429Z,99397.78
2023-05-21T20:00:03.571Z,99397.91
2023-05-21T20:02:40.706Z,99398.31
2023-05-21T20:05:09.267Z,99404.31
2023-05-21T20:07:37.153Z,99400.88
2023-05-21T20:10:05.228Z,99400.50
2023-05-21T20:12:33.125Z,99399.84
2023-05-21T20:15:01.198Z,99410.31
2023-05-21T20:17:29.082Z,99400.22
2023-05-21T20:19:57.397Z,99402.75
2023-05-21T20:22:24.976Z,99407.16
2023-05-21T20:24:52.653Z,99402.72
2023-05-21T20:27:20.551Z,99403.66
2023-05-21T20:29:48.216Z,99403.44
2023-05-21T20:32:15.938Z,99404.22
2023-05-21T20:34:58.321Z,99408.38
2023-05-21T20:37:30.137Z,99398.19
2023-05-21T20:39:58.290Z,99399.44
2023-05-21T20:42:26.831Z,99403.62
2023-05-21T20:44:55.057Z,99398.28
2023-05-21T20:47:23.115Z,99396.84
2023-05-21T20:49:50.885Z,99404.28
2023-05-21T20:52:18.563Z,99401.63
2023-05-21T20:54:46.524Z,99399.94
2023-05-21T20:57:14.261Z,99402.94
2023-05-21T20:59:41.964Z,99401.34
2023-05-21T21:02:11.123Z,99401.00
2023-05-21T21:04:38.806Z,99392.84
2023-05-21T21:07:06.500Z,99399.59
2023-05-21T21:09:34.495Z,99394.91
2023-05-21T21:12:11.347Z,99402.22
2023-05-21T21:14:49.353Z,99397.56
2023-05-21T21:17:16.974Z,99408.28
2023-05-21T21:19:44.600Z,99413.28
2023-05-21T21:22:12.525Z,99414.00
2023-05-21T21:24:40.231Z,99418.72
2023-05-21T21:27:07.858Z,99416.66
2023-05-21T21:29:35.925Z,99419.44
2023-05-21T21:32:03.549Z,99417.69
2023-05-21T21:34:31.233Z,99421.13
2023-05-21T21:36:59.236Z,99427.50
2023-05-21T21:39:26.910Z,99430.37
2023-05-21T21:41:54.529Z,99424.28
2023-05-21T21:44:22.545Z,99421.78
2023-05-21T21:46:50.181Z,99421.56
2023-05-21T21:49:17.826Z,99418.38
2023-05-21T21:51:45.956Z,99415.28
2023-05-21T21:54:13.476Z,99422.94
2023-05-21T21:56:41.278Z,99426.09
2023-05-21T21:59:09.265Z,99424.72
2023-05-21T22:01:37.411Z,99424.88
2023-05-21T22:04:05.536Z,99434.91
2023-05-21T22:06:33.193Z,99430.63
2023-05-21T22:09:03.575Z,99445.25
2023-05-21T22:11:31.614Z,99430.22
2023-05-21T22:13:59.443Z,99441.94
2023-05-21T22:16:27.355Z,99459.25
2023-05-21T22:18:55.294Z,99439.06
2023-05-21T22:21:23.002Z,99447.19
2023-05-21T22:23:50.562Z,99454.84
2023-05-21T22:26:18.457Z,99458.09
2023-05-21T22:28:46.158Z,99438.78
2023-05-21T22:31:13.808Z,99432.84
2023-05-21T22:33:41.802Z,99435.69
2023-05-21T22:36:09.687Z,99440.66
2023-05-21T22:38:37.326Z,99438.75
2023-05-21T22:41:05.291Z,99431.53
2023-05-21T22:43:33.929Z,99429.97
2023-05-21T22:46:02.056Z,99426.41
2023-05-21T22:48:29.987Z,99422.63
2023-05-21T22:50:57.874Z,99425.69
2023-05-21T22:53:25.708Z,99418.69
2023-05-21T22:55:53.589Z,99415.09
2023-05-21T22:58:21.259Z,99415.88
2023-05-21T23:00:49.104Z,99416.84
2023-05-21T23:03:17.066Z,99422.91
2023-05-21T23:05:45.524Z,99421.84
2023-05-21T23:08:13.601Z,99413.41
2023-05-21T23:10:41.823Z,99412.63
2023-05-21T23:13:09.658Z,99410.16
2023-05-21T23:15:37.408Z,99424.91
2023-05-21T23:18:05.486Z,99417.81
2023-05-21T23:20:33.260Z,99415.00
2023-05-21T23:23:01.127Z,99409.75
2023-05-21T23:25:29.071Z,99407.59
2023-05-21T23:27:56.749Z,99408.53
2023-05-21T23:30:24.287Z,99412.19
2023-05-21T23:32:52.404Z,99401.44
2023-05-21T23:35:20.116Z,99400.78
2023-05-21T23:37:47.911Z,99392.41
2023-05-21T23:40:15.800Z,99397.56
2023-05-21T23:42:43.515Z,99394.28
2023-05-21T23:45:11.470Z,99403.00
2023-05-21T23:47:39.486Z,99402.03
2023-05-21T23:50:07.691Z,99398.59
2023-05-21T23:52:35.389Z,99396.16
2023-05-21T23:55:03.300Z,99395.62
2023-05-21T23:57:31.031Z,99399.91
2023-05-21T23:59:58.764Z,99399.59
